sensor_id;sensor_type;location;lat;lon;timestamp;P1;durP1;ratioP1;P2;durP2;ratioP2
8281;SDS011;25606;42.686;23.136;2023-09-18T00:02:16;2.13;;;2.03;;
8281;SDS011;25606;42.686;23.136;2023-09-18T00:04:43;1.50;;;0.90;;
8281;SDS011;25606;42.686;23.136;2023-09-18T00:07:10;2.40;;;1.27;;
8281;SDS011;25606;42.686;23.136;2023-09-18T00:09:37;0.50;;;0.50;;
8281;SDS011;25606;42.686;23.136;2023-09-18T00:12:05;1.20;;;1.10;;
8281;SDS011;25606;42.686;23.136;2023-09-18T00:14:32;0.50;;;0.50;;
8281;SDS011;25606;42.686;23.136;2023-09-18T00:17:00;0.73;;;0.73;;
8281;SDS011;25606;42.686;23.136;2023-09-18T00:19:28;1.07;;;1.07;;
8281;SDS011;25606;42.686;23.136;2023-09-18T00:21:56;1.37;;;1.27;;
8281;SDS011;25606;42.686;23.136;2023-09-18T00:24:25;2.73;;;1.27;;
8281;SDS011;25606;42.686;23.136;2023-09-18T00:26:53;2.60;;;1.20;;
8281;SDS011;25606;42.686;23.136;2023-09-18T00:29:20;1.57;;;1.47;;
8281;SDS011;25606;42.686;23.136;2023-09-18T00:31:47;1.30;;;1.20;;
8281;SDS011;25606;42.686;23.136;2023-09-18T00:34:14;0.60;;;0.60;;
8281;SDS011;25606;42.686;23.136;2023-09-18T00:36:43;2.07;;;1.97;;
8281;SDS011;25606;42.686;23.136;2023-09-18T00:39:10;2.47;;;1.90;;
8281;SDS011;25606;42.686;23.136;2023-09-18T00:41:39;0.77;;;0.77;;
8281;SDS011;25606;42.686;23.136;2023-09-18T00:44:06;1.23;;;1.17;;
8281;SDS011;25606;42.686;23.136;2023-09-18T00:46:33;1.57;;;1.50;;
8281;SDS011;25606;42.686;23.136;2023-09-18T00:49:02;1.57;;;1.47;;
8281;SDS011;25606;42.686;23.136;2023-09-18T00:51:29;3.63;;;2.57;;
8281;SDS011;25606;42.686;23.136;2023-09-18T00:53:58;1.03;;;1.03;;
8281;SDS011;25606;42.686;23.136;2023-09-18T00:56:25;1.43;;;1.33;;
8281;SDS011;25606;42.686;23.136;2023-09-18T00:58:53;1.40;;;1.40;;
8281;SDS011;25606;42.686;23.136;2023-09-18T01:01:20;0.93;;;0.93;;
8281;SDS011;25606;42.686;23.136;2023-09-18T01:03:48;1.30;;;1.20;;
8281;SDS011;25606;42.686;23.136;2023-09-18T01:06:16;1.33;;;1.23;;
8281;SDS011;25606;42.686;23.136;2023-09-18T01:08:44;1.83;;;1.73;;
8281;SDS011;25606;42.686;23.136;2023-09-18T01:11:18;0.63;;;0.63;;
8281;SDS011;25606;42.686;23.136;2023-09-18T01:13:48;0.63;;;0.63;;
8281;SDS011;25606;42.686;23.136;2023-09-18T01:16:20;1.70;;;1.60;;
8281;SDS011;25606;42.686;23.136;2023-09-18T01:18:51;2.53;;;2.33;;
8281;SDS011;25606;42.686;23.136;2023-09-18T01:21:19;1.33;;;1.33;;
8281;SDS011;25606;42.686;23.136;2023-09-18T01:23:48;0.80;;;0.80;;
8281;SDS011;25606;42.686;23.136;2023-09-18T01:26:16;1.43;;;1.27;;
8281;SDS011;25606;42.686;23.136;2023-09-18T01:28:43;2.00;;;1.90;;
8281;SDS011;25606;42.686;23.136;2023-09-18T01:31:11;1.90;;;1.80;;
8281;SDS011;25606;42.686;23.136;2023-09-18T01:33:38;2.00;;;1.90;;
8281;SDS011;25606;42.686;23.136;2023-09-18T01:36:06;1.00;;;1.00;;
8281;SDS011;25606;42.686;23.136;2023-09-18T01:38:34;1.33;;;1.23;;
8281;SDS011;25606;42.686;23.136;2023-09-18T01:41:03;1.50;;;1.47;;
8281;SDS011;25606;42.686;23.136;2023-09-18T01:43:31;1.83;;;1.40;;
8281;SDS011;25606;42.686;23.136;2023-09-18T01:45:58;1.27;;;1.27;;
8281;SDS011;25606;42.686;23.136;2023-09-18T01:48:25;3.20;;;1.57;;
8281;SDS011;25606;42.686;23.136;2023-09-18T01:50:52;0.80;;;0.80;;
8281;SDS011;25606;42.686;23.136;2023-09-18T01:53:20;1.77;;;1.00;;
8281;SDS011;25606;42.686;23.136;2023-09-18T01:55:47;1.20;;;1.20;;
8281;SDS011;25606;42.686;23.136;2023-09-18T01:58:16;0.97;;;0.97;;
8281;SDS011;25606;42.686;23.136;2023-09-18T02:00:43;1.70;;;1.60;;
8281;SDS011;25606;42.686;23.136;2023-09-18T02:03:10;0.97;;;0.97;;
8281;SDS011;25606;42.686;23.136;2023-09-18T02:05:37;1.97;;;1.77;;
8281;SDS011;25606;42.686;23.136;2023-09-18T02:08:05;1.93;;;1.77;;
8281;SDS011;25606;42.686;23.136;2023-09-18T02:10:32;1.83;;;1.60;;
8281;SDS011;25606;42.686;23.136;2023-09-18T02:12:59;0.90;;;0.90;;
8281;SDS011;25606;42.686;23.136;2023-09-18T02:15:28;2.30;;;2.13;;
8281;SDS011;25606;42.686;23.136;2023-09-18T02:17:56;1.60;;;1.60;;
8281;SDS011;25606;42.686;23.136;2023-09-18T02:20:23;1.17;;;1.07;;
8281;SDS011;25606;42.686;23.136;2023-09-18T02:22:50;4.00;;;1.50;;
8281;SDS011;25606;42.686;23.136;2023-09-18T02:25:18;1.50;;;1.40;;
8281;SDS011;25606;42.686;23.136;2023-09-18T02:27:45;1.30;;;1.20;;
8281;SDS011;25606;42.686;23.136;2023-09-18T02:30:13;1.57;;;1.47;;
8281;SDS011;25606;42.686;23.136;2023-09-18T02:32:41;1.60;;;1.50;;
8281;SDS011;25606;42.686;23.136;2023-09-18T02:35:09;1.03;;;1.00;;
8281;SDS011;25606;42.686;23.136;2023-09-18T02:37:36;2.57;;;2.00;;
8281;SDS011;25606;42.686;23.136;2023-09-18T02:40:04;0.90;;;0.90;;
8281;SDS011;25606;42.686;23.136;2023-09-18T02:42:32;0.73;;;0.73;;
8281;SDS011;25606;42.686;23.136;2023-09-18T02:45:00;1.43;;;1.33;;
8281;SDS011;25606;42.686;23.136;2023-09-18T02:47:27;1.40;;;1.37;;
8281;SDS011;25606;42.686;23.136;2023-09-18T02:49:55;0.93;;;0.93;;
8281;SDS011;25606;42.686;23.136;2023-09-18T02:52:23;3.27;;;1.53;;
8281;SDS011;25606;42.686;23.136;2023-09-18T02:54:50;2.00;;;1.90;;
8281;SDS011;25606;42.686;23.136;2023-09-18T02:57:17;1.83;;;1.73;;
8281;SDS011;25606;42.686;23.136;2023-09-18T02:59:45;1.10;;;1.10;;
8281;SDS011;25606;42.686;23.136;2023-09-18T03:02:12;1.00;;;1.00;;
8281;SDS011;25606;42.686;23.136;2023-09-18T03:04:39;1.50;;;1.50;;
8281;SDS011;25606;42.686;23.136;2023-09-18T03:07:08;1.90;;;1.80;;
8281;SDS011;25606;42.686;23.136;2023-09-18T03:09:35;1.17;;;1.13;;
8281;SDS011;25606;42.686;23.136;2023-09-18T03:12:03;2.73;;;1.70;;
8281;SDS011;25606;42.686;23.136;2023-09-18T03:14:30;0.90;;;0.90;;
8281;SDS011;25606;42.686;23.136;2023-09-18T03:16:57;1.40;;;1.30;;
8281;SDS011;25606;42.686;23.136;2023-09-18T03:19:24;1.77;;;1.73;;
8281;SDS011;25606;42.686;23.136;2023-09-18T03:21:52;0.97;;;0.97;;
8281;SDS011;25606;42.686;23.136;2023-09-18T03:24:21;1.97;;;1.87;;
8281;SDS011;25606;42.686;23.136;2023-09-18T03:26:48;1.90;;;1.80;;
8281;SDS011;25606;42.686;23.136;2023-09-18T03:29:15;1.83;;;1.73;;
8281;SDS011;25606;42.686;23.136;2023-09-18T03:31:43;1.37;;;1.33;;
8281;SDS011;25606;42.686;23.136;2023-09-18T03:34:10;1.07;;;1.07;;
8281;SDS011;25606;42.686;23.136;2023-09-18T03:36:38;1.87;;;1.77;;
8281;SDS011;25606;42.686;23.136;2023-09-18T03:39:05;0.73;;;0.73;;
8281;SDS011;25606;42.686;23.136;2023-09-18T03:41:34;0.90;;;0.90;;
8281;SDS011;25606;42.686;23.136;2023-09-18T03:44:01;0.90;;;0.90;;
8281;SDS011;25606;42.686;23.136;2023-09-18T03:46:28;1.43;;;0.90;;
8281;SDS011;25606;42.686;23.136;2023-09-18T03:48:56;1.80;;;1.70;;
8281;SDS011;25606;42.686;23.136;2023-09-18T03:51:23;1.30;;;1.30;;
8281;SDS011;25606;42.686;23.136;2023-09-18T03:53:50;1.93;;;1.83;;
8281;SDS011;25606;42.686;23.136;2023-09-18T03:56:17;1.33;;;1.30;;
8281;SDS011;25606;42.686;23.136;2023-09-18T03:58:46;1.93;;;1.83;;
8281;SDS011;25606;42.686;23.136;2023-09-18T04:01:14;2.83;;;1.07;;
8281;SDS011;25606;42.686;23.136;2023-09-18T04:03:42;4.20;;;2.37;;
8281;SDS011;25606;42.686;23.136;2023-09-18T04:06:09;1.70;;;1.47;;
8281;SDS011;25606;42.686;23.136;2023-09-18T04:08:36;1.27;;;1.27;;
8281;SDS011;25606;42.686;23.136;2023-09-18T04:11:03;2.20;;;2.00;;
8281;SDS011;25606;42.686;23.136;2023-09-18T04:13:33;1.93;;;1.80;;
8281;SDS011;25606;42.686;23.136;2023-09-18T04:16:04;1.33;;;1.33;;
8281;SDS011;25606;42.686;23.136;2023-09-18T04:18:31;2.00;;;1.90;;
8281;SDS011;25606;42.686;23.136;2023-09-18T04:20:58;2.70;;;2.07;;
8281;SDS011;25606;42.686;23.136;2023-09-18T04:23:26;1.97;;;1.87;;
8281;SDS011;25606;42.686;23.136;2023-09-18T04:25:54;2.83;;;1.83;;
8281;SDS011;25606;42.686;23.136;2023-09-18T04:28:23;0.93;;;0.93;;
8281;SDS011;25606;42.686;23.136;2023-09-18T04:30:50;1.40;;;1.23;;
8281;SDS011;25606;42.686;23.136;2023-09-18T04:33:19;2.13;;;1.17;;
8281;SDS011;25606;42.686;23.136;2023-09-18T04:35:47;2.00;;;1.90;;
8281;SDS011;25606;42.686;23.136;2023-09-18T04:38:14;1.60;;;1.60;;
8281;SDS011;25606;42.686;23.136;2023-09-18T04:40:42;1.03;;;1.03;;
8281;SDS011;25606;42.686;23.136;2023-09-18T04:43:10;2.47;;;2.27;;
8281;SDS011;25606;42.686;23.136;2023-09-18T04:45:38;2.40;;;2.20;;
8281;SDS011;25606;42.686;23.136;2023-09-18T04:48:05;0.93;;;0.93;;
8281;SDS011;25606;42.686;23.136;2023-09-18T04:50:34;2.67;;;2.00;;
8281;SDS011;25606;42.686;23.136;2023-09-18T04:53:02;0.87;;;0.87;;
8281;SDS011;25606;42.686;23.136;2023-09-18T04:55:29;1.70;;;1.60;;
8281;SDS011;25606;42.686;23.136;2023-09-18T04:57:56;1.13;;;1.03;;
8281;SDS011;25606;42.686;23.136;2023-09-18T05:00:24;1.80;;;1.70;;
8281;SDS011;25606;42.686;23.136;2023-09-18T05:02:52;1.40;;;1.30;;
8281;SDS011;25606;42.686;23.136;2023-09-18T05:05:19;1.20;;;1.17;;
8281;SDS011;25606;42.686;23.136;2023-09-18T05:07:48;0.73;;;0.73;;
8281;SDS011;25606;42.686;23.136;2023-09-18T05:10:15;2.27;;;1.40;;
8281;SDS011;25606;42.686;23.136;2023-09-18T05:12:42;0.77;;;0.77;;
8281;SDS011;25606;42.686;23.136;2023-09-18T05:15:10;2.00;;;1.90;;
8281;SDS011;25606;42.686;23.136;2023-09-18T05:17:39;1.33;;;1.23;;
8281;SDS011;25606;42.686;23.136;2023-09-18T05:20:08;1.37;;;0.90;;
8281;SDS011;25606;42.686;23.136;2023-09-18T05:22:37;1.60;;;1.10;;
8281;SDS011;25606;42.686;23.136;2023-09-18T05:25:06;2.43;;;2.23;;
8281;SDS011;25606;42.686;23.136;2023-09-18T05:27:34;1.70;;;1.60;;
8281;SDS011;25606;42.686;23.136;2023-09-18T05:30:01;1.73;;;1.17;;
8281;SDS011;25606;42.686;23.136;2023-09-18T05:32:28;1.03;;;1.00;;
8281;SDS011;25606;42.686;23.136;2023-09-18T05:34:55;0.90;;;0.90;;
8281;SDS011;25606;42.686;23.136;2023-09-18T05:37:27;1.83;;;1.50;;
8281;SDS011;25606;42.686;23.136;2023-09-18T05:39:54;4.00;;;1.93;;
8281;SDS011;25606;42.686;23.136;2023-09-18T05:42:23;1.13;;;1.10;;
8281;SDS011;25606;42.686;23.136;2023-09-18T05:44:50;2.80;;;2.10;;
8281;SDS011;25606;42.686;23.136;2023-09-18T05:47:18;2.33;;;2.13;;
8281;SDS011;25606;42.686;23.136;2023-09-18T05:49:45;3.00;;;2.77;;
8281;SDS011;25606;42.686;23.136;2023-09-18T05:52:13;1.20;;;1.10;;
8281;SDS011;25606;42.686;23.136;2023-09-18T05:54:40;1.93;;;1.83;;
8281;SDS011;25606;42.686;23.136;2023-09-18T05:57:07;1.30;;;1.27;;
8281;SDS011;25606;42.686;23.136;2023-09-18T05:59:36;1.67;;;1.57;;
8281;SDS011;25606;42.686;23.136;2023-09-18T06:02:05;1.80;;;1.70;;
8281;SDS011;25606;42.686;23.136;2023-09-18T06:04:32;1.87;;;1.77;;
8281;SDS011;25606;42.686;23.136;2023-09-18T06:07:02;2.47;;;2.30;;
8281;SDS011;25606;42.686;23.136;2023-09-18T06:09:29;1.47;;;1.33;;
8281;SDS011;25606;42.686;23.136;2023-09-18T06:11:57;1.60;;;1.50;;
8281;SDS011;25606;42.686;23.136;2023-09-18T06:14:24;1.23;;;1.20;;
8281;SDS011;25606;42.686;23.136;2023-09-18T06:16:53;4.13;;;3.13;;
8281;SDS011;25606;42.686;23.136;2023-09-18T06:19:20;3.70;;;2.27;;
8281;SDS011;25606;42.686;23.136;2023-09-18T06:21:48;1.03;;;1.03;;
8281;SDS011;25606;42.686;23.136;2023-09-18T06:24:15;2.40;;;1.80;;
8281;SDS011;25606;42.686;23.136;2023-09-18T06:26:42;2.73;;;1.53;;
8281;SDS011;25606;42.686;23.136;2023-09-18T06:29:10;1.57;;;1.50;;
8281;SDS011;25606;42.686;23.136;2023-09-18T06:31:37;2.07;;;1.93;;
8281;SDS011;25606;42.686;23.136;2023-09-18T06:34:06;2.57;;;2.10;;
8281;SDS011;25606;42.686;23.136;2023-09-18T06:36:33;2.87;;;2.47;;
8281;SDS011;25606;42.686;23.136;2023-09-18T06:39:00;1.73;;;1.60;;
8281;SDS011;25606;42.686;23.136;2023-09-18T06:41:28;1.20;;;1.17;;
8281;SDS011;25606;42.686;23.136;2023-09-18T06:43:55;1.67;;;1.57;;
8281;SDS011;25606;42.686;23.136;2023-09-18T06:46:23;2.13;;;1.77;;
8281;SDS011;25606;42.686;23.136;2023-09-18T06:48:50;2.00;;;1.90;;
8281;SDS011;25606;42.686;23.136;2023-09-18T06:51:19;3.37;;;1.97;;
8281;SDS011;25606;42.686;23.136;2023-09-18T06:53:46;3.73;;;3.17;;
8281;SDS011;25606;42.686;23.136;2023-09-18T06:56:13;1.43;;;1.37;;
8281;SDS011;25606;42.686;23.136;2023-09-18T06:58:41;3.60;;;2.50;;
8281;SDS011;25606;42.686;23.136;2023-09-18T07:01:08;1.37;;;1.30;;
8281;SDS011;25606;42.686;23.136;2023-09-18T07:03:35;3.70;;;2.43;;
8281;SDS011;25606;42.686;23.136;2023-09-18T07:06:05;2.53;;;2.33;;
8281;SDS011;25606;42.686;23.136;2023-09-18T07:08:33;1.37;;;1.27;;
8281;SDS011;25606;42.686;23.136;2023-09-18T07:11:01;1.93;;;1.70;;
8281;SDS011;25606;42.686;23.136;2023-09-18T07:13:28;2.63;;;2.40;;
8281;SDS011;25606;42.686;23.136;2023-09-18T07:15:56;2.73;;;2.50;;
8281;SDS011;25606;42.686;23.136;2023-09-18T07:18:23;2.07;;;1.87;;
8281;SDS011;25606;42.686;23.136;2023-09-18T07:20:50;2.30;;;2.13;;
8281;SDS011;25606;42.686;23.136;2023-09-18T07:23:17;3.73;;;3.03;;
8281;SDS011;25606;42.686;23.136;2023-09-18T07:25:46;2.73;;;2.40;;
8281;SDS011;25606;42.686;23.136;2023-09-18T07:28:14;5.30;;;2.73;;
8281;SDS011;25606;42.686;23.136;2023-09-18T07:30:42;2.73;;;2.23;;
8281;SDS011;25606;42.686;23.136;2023-09-18T07:33:10;2.60;;;2.13;;
8281;SDS011;25606;42.686;23.136;2023-09-18T07:35:37;2.27;;;1.97;;
8281;SDS011;25606;42.686;23.136;2023-09-18T07:38:05;2.70;;;2.23;;
8281;SDS011;25606;42.686;23.136;2023-09-18T07:40:33;4.43;;;2.93;;
8281;SDS011;25606;42.686;23.136;2023-09-18T07:43:02;2.50;;;2.23;;
8281;SDS011;25606;42.686;23.136;2023-09-18T07:45:30;4.30;;;2.87;;
8281;SDS011;25606;42.686;23.136;2023-09-18T07:47:57;4.23;;;2.20;;
8281;SDS011;25606;42.686;23.136;2023-09-18T07:50:24;4.13;;;2.80;;
8281;SDS011;25606;42.686;23.136;2023-09-18T07:52:52;4.53;;;3.07;;
8281;SDS011;25606;42.686;23.136;2023-09-18T07:55:20;4.43;;;2.97;;
8281;SDS011;25606;42.686;23.136;2023-09-18T07:57:47;3.00;;;2.20;;
8281;SDS011;25606;42.686;23.136;2023-09-18T08:00:18;3.23;;;2.17;;
8281;SDS011;25606;42.686;23.136;2023-09-18T08:02:47;3.90;;;2.23;;
8281;SDS011;25606;42.686;23.136;2023-09-18T08:05:15;4.00;;;2.60;;
8281;SDS011;25606;42.686;23.136;2023-09-18T08:07:42;4.60;;;2.30;;
8281;SDS011;25606;42.686;23.136;2023-09-18T08:10:10;5.17;;;3.07;;
8281;SDS011;25606;42.686;23.136;2023-09-18T08:12:38;5.17;;;2.70;;
8281;SDS011;25606;42.686;23.136;2023-09-18T08:15:05;5.27;;;3.07;;
8281;SDS011;25606;42.686;23.136;2023-09-18T08:17:35;4.80;;;2.33;;
8281;SDS011;25606;42.686;23.136;2023-09-18T08:20:03;6.13;;;3.00;;
8281;SDS011;25606;42.686;23.136;2023-09-18T08:22:37;8.37;;;3.70;;
8281;SDS011;25606;42.686;23.136;2023-09-18T08:25:05;4.97;;;2.27;;
8281;SDS011;25606;42.686;23.136;2023-09-18T08:27:33;6.77;;;3.20;;
8281;SDS011;25606;42.686;23.136;2023-09-18T08:30:00;8.83;;;4.07;;
8281;SDS011;25606;42.686;23.136;2023-09-18T08:32:28;7.00;;;3.07;;
8281;SDS011;25606;42.686;23.136;2023-09-18T08:35:00;7.23;;;2.93;;
8281;SDS011;25606;42.686;23.136;2023-09-18T08:37:27;7.43;;;3.20;;
8281;SDS011;25606;42.686;23.136;2023-09-18T08:39:56;4.50;;;2.03;;
8281;SDS011;25606;42.686;23.136;2023-09-18T08:42:24;9.50;;;3.67;;
8281;SDS011;25606;42.686;23.136;2023-09-18T08:44:52;7.30;;;2.73;;
8281;SDS011;25606;42.686;23.136;2023-09-18T08:47:20;6.50;;;3.60;;
8281;SDS011;25606;42.686;23.136;2023-09-18T08:49:48;7.50;;;3.10;;
8281;SDS011;25606;42.686;23.136;2023-09-18T08:52:17;9.23;;;3.67;;
8281;SDS011;25606;42.686;23.136;2023-09-18T08:54:45;6.93;;;3.23;;
8281;SDS011;25606;42.686;23.136;2023-09-18T08:57:12;6.47;;;3.03;;
8281;SDS011;25606;42.686;23.136;2023-09-18T08:59:40;11.80;;;3.90;;
8281;SDS011;25606;42.686;23.136;2023-09-18T09:02:08;6.93;;;2.80;;
8281;SDS011;25606;42.686;23.136;2023-09-18T09:04:36;11.90;;;4.53;;
8281;SDS011;25606;42.686;23.136;2023-09-18T09:07:04;10.77;;;3.90;;
8281;SDS011;25606;42.686;23.136;2023-09-18T09:09:33;7.73;;;3.37;;
8281;SDS011;25606;42.686;23.136;2023-09-18T09:12:00;6.03;;;2.30;;
8281;SDS011;25606;42.686;23.136;2023-09-18T09:14:28;12.43;;;4.50;;
8281;SDS011;25606;42.686;23.136;2023-09-18T09:16:55;7.87;;;2.67;;
8281;SDS011;25606;42.686;23.136;2023-09-18T09:19:29;8.87;;;3.30;;
8281;SDS011;25606;42.686;23.136;2023-09-18T09:21:57;9.63;;;3.47;;
8281;SDS011;25606;42.686;23.136;2023-09-18T09:24:40;6.27;;;2.40;;
8281;SDS011;25606;42.686;23.136;2023-09-18T09:27:08;7.57;;;2.87;;
8281;SDS011;25606;42.686;23.136;2023-09-18T09:29:35;8.10;;;2.73;;
8281;SDS011;25606;42.686;23.136;2023-09-18T09:32:12;8.43;;;2.87;;
8281;SDS011;25606;42.686;23.136;2023-09-18T09:34:40;11.90;;;3.73;;
8281;SDS011;25606;42.686;23.136;2023-09-18T09:37:08;11.52;;;3.72;;
8281;SDS011;25606;42.686;23.136;2023-09-18T09:39:47;16.92;;;4.85;;
8281;SDS011;25606;42.686;23.136;2023-09-18T09:42:15;20.50;;;5.63;;
8281;SDS011;25606;42.686;23.136;2023-09-18T09:44:47;21.58;;;6.13;;
8281;SDS011;25606;42.686;23.136;2023-09-18T09:47:14;19.17;;;6.82;;
8281;SDS011;25606;42.686;23.136;2023-09-18T09:49:45;21.38;;;6.78;;
8281;SDS011;25606;42.686;23.136;2023-09-18T09:52:17;22.58;;;6.57;;
8281;SDS011;25606;42.686;23.136;2023-09-18T09:54:48;20.25;;;5.85;;
8281;SDS011;25606;42.686;23.136;2023-09-18T09:57:15;21.90;;;6.80;;
8281;SDS011;25606;42.686;23.136;2023-09-18T09:59:43;15.85;;;4.07;;
8281;SDS011;25606;42.686;23.136;2023-09-18T10:02:10;24.88;;;6.63;;
8281;SDS011;25606;42.686;23.136;2023-09-18T10:04:44;20.00;;;5.75;;
8281;SDS011;25606;42.686;23.136;2023-09-18T10:07:13;26.95;;;7.93;;
8281;SDS011;25606;42.686;23.136;2023-09-18T10:09:42;18.50;;;5.45;;
8281;SDS011;25606;42.686;23.136;2023-09-18T10:12:12;31.20;;;12.57;;
8281;SDS011;25606;42.686;23.136;2023-09-18T10:14:44;40.28;;;23.17;;
8281;SDS011;25606;42.686;23.136;2023-09-18T10:17:15;46.97;;;43.33;;
8281;SDS011;25606;42.686;23.136;2023-09-18T10:19:45;115.15;;;104.72;;
8281;SDS011;25606;42.686;23.136;2023-09-18T10:22:19;134.20;;;122.93;;
8281;SDS011;25606;42.686;23.136;2023-09-18T10:24:49;174.63;;;159.93;;
8281;SDS011;25606;42.686;23.136;2023-09-18T10:27:19;161.70;;;148.18;;
8281;SDS011;25606;42.686;23.136;2023-09-18T10:29:47;173.43;;;158.40;;
8281;SDS011;25606;42.686;23.136;2023-09-18T10:32:16;180.02;;;164.82;;
8281;SDS011;25606;42.686;23.136;2023-09-18T10:34:45;182.07;;;166.88;;
8281;SDS011;25606;42.686;23.136;2023-09-18T10:37:14;164.13;;;150.73;;
8281;SDS011;25606;42.686;23.136;2023-09-18T10:39:42;85.53;;;78.00;;
8281;SDS011;25606;42.686;23.136;2023-09-18T10:42:10;55.03;;;48.30;;
8281;SDS011;25606;42.686;23.136;2023-09-18T10:44:38;33.33;;;27.60;;
8281;SDS011;25606;42.686;23.136;2023-09-18T10:47:06;58.28;;;51.38;;
8281;SDS011;25606;42.686;23.136;2023-09-18T10:49:35;91.38;;;83.30;;
8281;SDS011;25606;42.686;23.136;2023-09-18T10:52:02;116.57;;;106.57;;
8281;SDS011;25606;42.686;23.136;2023-09-18T10:54:30;133.77;;;122.15;;
8281;SDS011;25606;42.686;23.136;2023-09-18T10:56:59;136.07;;;125.38;;
8281;SDS011;25606;42.686;23.136;2023-09-18T10:59:27;131.50;;;120.05;;
8281;SDS011;25606;42.686;23.136;2023-09-18T11:01:58;116.38;;;106.85;;
8281;SDS011;25606;42.686;23.136;2023-09-18T11:04:30;96.13;;;88.70;;
8281;SDS011;25606;42.686;23.136;2023-09-18T11:07:01;108.38;;;99.90;;
8281;SDS011;25606;42.686;23.136;2023-09-18T11:09:31;116.97;;;106.80;;
8281;SDS011;25606;42.686;23.136;2023-09-18T11:12:02;147.68;;;134.98;;
8281;SDS011;25606;42.686;23.136;2023-09-18T11:14:46;139.88;;;128.77;;
8281;SDS011;25606;42.686;23.136;2023-09-18T11:17:32;140.73;;;129.75;;
8281;SDS011;25606;42.686;23.136;2023-09-18T11:20:03;173.75;;;160.23;;
8281;SDS011;25606;42.686;23.136;2023-09-18T11:22:34;137.90;;;126.95;;
8281;SDS011;25606;42.686;23.136;2023-09-18T11:27:52;214.35;;;197.38;;
8281;SDS011;25606;42.686;23.136;2023-09-18T11:30:21;191.52;;;175.75;;
8281;SDS011;25606;42.686;23.136;2023-09-18T11:32:50;208.77;;;192.38;;
8281;SDS011;25606;42.686;23.136;2023-09-18T11:35:17;182.68;;;167.48;;
8281;SDS011;25606;42.686;23.136;2023-09-18T11:37:45;213.45;;;196.45;;
8281;SDS011;25606;42.686;23.136;2023-09-18T11:40:26;201.63;;;185.65;;
8281;SDS011;25606;42.686;23.136;2023-09-18T11:45:39;205.65;;;189.50;;
8281;SDS011;25606;42.686;23.136;2023-09-18T11:48:09;248.48;;;228.20;;
8281;SDS011;25606;42.686;23.136;2023-09-18T11:50:37;202.82;;;185.77;;
8281;SDS011;25606;42.686;23.136;2023-09-18T11:53:05;184.95;;;170.05;;
8281;SDS011;25606;42.686;23.136;2023-09-18T11:55:32;159.35;;;146.20;;
8281;SDS011;25606;42.686;23.136;2023-09-18T11:58:00;205.85;;;189.55;;
8281;SDS011;25606;42.686;23.136;2023-09-18T12:00:29;231.88;;;213.43;;
8281;SDS011;25606;42.686;23.136;2023-09-18T12:02:57;270.10;;;248.27;;
8281;SDS011;25606;42.686;23.136;2023-09-18T12:05:26;276.42;;;254.50;;
8281;SDS011;25606;42.686;23.136;2023-09-18T12:07:53;327.65;;;301.40;;
8281;SDS011;25606;42.686;23.136;2023-09-18T12:10:21;357.98;;;329.23;;
8281;SDS011;25606;42.686;23.136;2023-09-18T12:12:49;341.38;;;315.92;;
8281;SDS011;25606;42.686;23.136;2023-09-18T12:15:17;281.00;;;258.67;;
8281;SDS011;25606;42.686;23.136;2023-09-18T12:17:45;306.83;;;282.73;;
8281;SDS011;25606;42.686;23.136;2023-09-18T12:20:16;288.35;;;263.92;;
8281;SDS011;25606;42.686;23.136;2023-09-18T12:22:47;253.07;;;233.07;;
8281;SDS011;25606;42.686;23.136;2023-09-18T12:25:15;278.15;;;255.27;;
8281;SDS011;25606;42.686;23.136;2023-09-18T12:27:43;253.20;;;231.25;;
8281;SDS011;25606;42.686;23.136;2023-09-18T12:30:11;272.05;;;249.50;;
8281;SDS011;25606;42.686;23.136;2023-09-18T12:32:45;264.35;;;242.88;;
8281;SDS011;25606;42.686;23.136;2023-09-18T12:35:14;254.43;;;234.57;;
8281;SDS011;25606;42.686;23.136;2023-09-18T12:37:44;254.65;;;234.45;;
8281;SDS011;25606;42.686;23.136;2023-09-18T12:40:26;260.92;;;239.73;;
8281;SDS011;25606;42.686;23.136;2023-09-18T12:42:54;219.50;;;202.70;;
8281;SDS011;25606;42.686;23.136;2023-09-18T12:45:23;262.60;;;241.18;;
8281;SDS011;25606;42.686;23.136;2023-09-18T12:47:51;218.40;;;199.00;;
8281;SDS011;25606;42.686;23.136;2023-09-18T12:50:18;273.52;;;250.65;;
8281;SDS011;25606;42.686;23.136;2023-09-18T12:52:46;293.75;;;271.17;;
8281;SDS011;25606;42.686;23.136;2023-09-18T12:55:22;314.83;;;289.23;;
8281;SDS011;25606;42.686;23.136;2023-09-18T12:57:51;291.75;;;269.02;;
8281;SDS011;25606;42.686;23.136;2023-09-18T13:00:19;261.00;;;239.57;;
8281;SDS011;25606;42.686;23.136;2023-09-18T13:02:48;232.45;;;214.23;;
8281;SDS011;25606;42.686;23.136;2023-09-18T13:05:19;177.52;;;162.70;;
8281;SDS011;25606;42.686;23.136;2023-09-18T13:07:51;203.88;;;186.10;;
8281;SDS011;25606;42.686;23.136;2023-09-18T13:10:18;223.85;;;205.55;;
8281;SDS011;25606;42.686;23.136;2023-09-18T13:12:47;232.02;;;213.43;;
8281;SDS011;25606;42.686;23.136;2023-09-18T13:15:25;193.85;;;177.77;;
8281;SDS011;25606;42.686;23.136;2023-09-18T13:17:53;204.77;;;187.25;;
8281;SDS011;25606;42.686;23.136;2023-09-18T13:20:22;182.60;;;166.00;;
8281;SDS011;25606;42.686;23.136;2023-09-18T13:22:52;188.80;;;172.32;;
8281;SDS011;25606;42.686;23.136;2023-09-18T13:25:20;195.07;;;178.02;;
8281;SDS011;25606;42.686;23.136;2023-09-18T13:27:48;153.38;;;140.15;;
8281;SDS011;25606;42.686;23.136;2023-09-18T13:30:15;104.97;;;96.32;;
8281;SDS011;25606;42.686;23.136;2023-09-18T13:32:44;80.20;;;72.28;;
8281;SDS011;25606;42.686;23.136;2023-09-18T13:35:13;72.65;;;66.30;;
8281;SDS011;25606;42.686;23.136;2023-09-18T13:37:41;100.45;;;91.25;;
8281;SDS011;25606;42.686;23.136;2023-09-18T13:40:09;65.90;;;56.38;;
8281;SDS011;25606;42.686;23.136;2023-09-18T13:42:37;50.20;;;42.22;;
8281;SDS011;25606;42.686;23.136;2023-09-18T13:45:05;37.47;;;27.77;;
8281;SDS011;25606;42.686;23.136;2023-09-18T13:47:34;33.38;;;11.10;;
8281;SDS011;25606;42.686;23.136;2023-09-18T13:50:03;22.38;;;8.65;;
8281;SDS011;25606;42.686;23.136;2023-09-18T13:52:31;21.58;;;5.85;;
8281;SDS011;25606;42.686;23.136;2023-09-18T13:54:59;34.22;;;10.10;;
8281;SDS011;25606;42.686;23.136;2023-09-18T13:57:28;17.85;;;4.15;;
8281;SDS011;25606;42.686;23.136;2023-09-18T13:59:56;16.70;;;4.45;;
8281;SDS011;25606;42.686;23.136;2023-09-18T14:02:23;19.17;;;4.68;;
8281;SDS011;25606;42.686;23.136;2023-09-18T14:04:52;15.75;;;4.00;;
8281;SDS011;25606;42.686;23.136;2023-09-18T14:07:21;15.25;;;3.92;;
8281;SDS011;25606;42.686;23.136;2023-09-18T14:09:49;14.68;;;3.80;;
8281;SDS011;25606;42.686;23.136;2023-09-18T14:12:16;10.95;;;3.20;;
8281;SDS011;25606;42.686;23.136;2023-09-18T14:14:44;13.32;;;4.00;;
8281;SDS011;25606;42.686;23.136;2023-09-18T14:17:11;14.20;;;4.00;;
8281;SDS011;25606;42.686;23.136;2023-09-18T14:19:41;12.35;;;3.65;;
8281;SDS011;25606;42.686;23.136;2023-09-18T14:22:09;8.50;;;2.80;;
8281;SDS011;25606;42.686;23.136;2023-09-18T14:24:38;11.80;;;3.83;;
8281;SDS011;25606;42.686;23.136;2023-09-18T14:27:05;10.27;;;3.43;;
8281;SDS011;25606;42.686;23.136;2023-09-18T14:29:32;12.87;;;3.63;;
8281;SDS011;25606;42.686;23.136;2023-09-18T14:32:00;11.13;;;3.27;;
8281;SDS011;25606;42.686;23.136;2023-09-18T14:34:27;12.60;;;3.93;;
8281;SDS011;25606;42.686;23.136;2023-09-18T14:36:55;10.13;;;3.33;;
8281;SDS011;25606;42.686;23.136;2023-09-18T14:39:23;11.60;;;3.57;;
8281;SDS011;25606;42.686;23.136;2023-09-18T14:41:53;10.80;;;3.30;;
8281;SDS011;25606;42.686;23.136;2023-09-18T14:44:20;10.70;;;3.63;;
8281;SDS011;25606;42.686;23.136;2023-09-18T14:46:48;10.23;;;3.07;;
8281;SDS011;25606;42.686;23.136;2023-09-18T14:49:15;8.90;;;3.17;;